Weather at Porto Santo Airport

Public forecast

Using degrees Celsius for public forecast. Weather courtesy of forecast.io.

Current aviation weather report (METAR) for Porto Santo Airport

2024/05/28 04:00 (retrieved 32 minutes ago)

LPPS 280400Z 03011KT 360V060 9999 SCT015 BKN030 18/12 Q1022

Closest aviation forecast (TAF) to Porto Santo Airport

Forecast is more than 6 hours old.

Closest forecast is Ovar Air Base, 598.0 nm (1,107.4 km) NE.

2024/05/27 20:06 Ammendment (retrieved 8 hours ago)

TAF AMD TAF AMD LPOV 272003Z 2720/2818 CNL